createdAt,value
2017-10-25T00:00:55.732Z,0.00
2017-10-25T00:01:55.650Z,0.00
2017-10-25T00:02:55.565Z,0.00
2017-10-25T00:03:55.491Z,0.00
2017-10-25T00:04:55.407Z,0.00
2017-10-25T00:05:55.329Z,0.00
2017-10-25T00:06:55.258Z,0.00
2017-10-25T00:07:55.169Z,0.00
2017-10-25T00:08:55.080Z,0.00
2017-10-25T00:09:55.008Z,0.00
2017-10-25T00:10:54.925Z,0.00
2017-10-25T00:11:54.837Z,0.00
2017-10-25T00:12:54.766Z,0.00
2017-10-25T00:13:54.675Z,0.00
2017-10-25T00:14:54.590Z,0.00
2017-10-25T00:15:54.510Z,0.00
2017-10-25T00:16:54.434Z,0.00
2017-10-25T00:17:54.350Z,0.00
2017-10-25T00:18:54.267Z,0.00
2017-10-25T00:19:54.187Z,0.00
2017-10-25T00:20:54.103Z,0.00
2017-10-25T00:21:54.024Z,0.00
2017-10-25T00:22:53.944Z,0.00
2017-10-25T00:23:53.867Z,0.00
2017-10-25T00:24:53.779Z,0.00
2017-10-25T00:25:53.697Z,0.00
2017-10-25T00:26:53.626Z,0.00
2017-10-25T00:27:53.535Z,0.00
2017-10-25T00:28:53.469Z,0.00
2017-10-25T00:29:53.372Z,0.00
2017-10-25T00:30:53.311Z,0.00
2017-10-25T00:31:53.215Z,0.00
2017-10-25T00:32:53.128Z,0.00
2017-10-25T00:33:53.057Z,0.00
2017-10-25T00:34:53.021Z,0.00
2017-10-25T00:35:52.891Z,0.00
2017-10-25T00:36:52.810Z,0.00
2017-10-25T00:37:52.724Z,0.00
2017-10-25T00:38:52.640Z,0.00
2017-10-25T00:39:52.559Z,0.00
2017-10-25T00:40:52.484Z,0.00
2017-10-25T00:41:52.399Z,0.00
2017-10-25T00:42:52.316Z,0.00
2017-10-25T00:43:52.236Z,0.00
2017-10-25T00:44:52.178Z,0.00
2017-10-25T00:45:52.077Z,0.00
2017-10-25T00:46:51.993Z,0.00
2017-10-25T00:47:51.912Z,0.00
2017-10-25T00:48:51.831Z,0.00
2017-10-25T00:49:51.745Z,0.00
2017-10-25T00:50:51.666Z,0.00
2017-10-25T00:51:51.589Z,0.00
2017-10-25T00:52:51.511Z,0.00
2017-10-25T00:53:51.425Z,0.00
2017-10-25T00:54:51.353Z,0.00
2017-10-25T00:55:51.276Z,0.00
2017-10-25T00:56:51.179Z,0.00
2017-10-25T00:57:51.101Z,0.00
2017-10-25T00:58:51.023Z,0.00
2017-10-25T00:59:50.948Z,0.00
2017-10-25T01:00:50.861Z,0.00
2017-10-25T01:01:50.775Z,0.00
2017-10-25T01:02:50.712Z,0.00
2017-10-25T01:03:50.620Z,0.00
2017-10-25T01:04:50.536Z,0.00
2017-10-25T01:05:50.459Z,0.00
2017-10-25T01:06:50.373Z,0.00
2017-10-25T01:07:50.297Z,0.00
2017-10-25T01:08:50.225Z,0.00
2017-10-25T01:09:50.138Z,0.00
2017-10-25T01:10:50.051Z,0.00
2017-10-25T01:11:49.973Z,0.00
2017-10-25T01:12:49.888Z,0.00
2017-10-25T01:13:49.805Z,0.00
2017-10-25T01:14:49.719Z,0.00
2017-10-25T01:15:49.643Z,0.00
2017-10-25T01:16:49.560Z,0.00
2017-10-25T01:17:49.499Z,0.00
2017-10-25T01:18:49.403Z,0.00
2017-10-25T01:19:49.336Z,0.00
2017-10-25T01:20:49.240Z,0.00
2017-10-25T01:21:49.162Z,0.00
2017-10-25T01:22:49.080Z,0.00
2017-10-25T01:23:49.008Z,0.00
2017-10-25T01:24:48.921Z,0.00
2017-10-25T01:25:48.828Z,0.00
2017-10-25T01:26:48.753Z,0.00
2017-10-25T01:27:48.677Z,0.00
2017-10-25T01:28:48.591Z,0.00
2017-10-25T01:29:48.508Z,0.00
2017-10-25T01:30:48.429Z,0.00
2017-10-25T01:31:48.364Z,0.00
2017-10-25T01:32:48.267Z,0.00
2017-10-25T01:33:48.180Z,0.00
2017-10-25T01:34:48.107Z,0.00
2017-10-25T01:35:48.027Z,0.00
2017-10-25T01:36:47.957Z,0.00
2017-10-25T01:37:47.874Z,0.00
2017-10-25T01:38:47.783Z,0.00
2017-10-25T01:39:47.714Z,0.00
2017-10-25T01:40:47.621Z,0.00
2017-10-25T01:41:47.541Z,0.00
2017-10-25T01:42:47.461Z,0.00
2017-10-25T01:43:47.389Z,0.00
2017-10-25T01:44:47.298Z,0.00
2017-10-25T01:45:47.222Z,0.00
2017-10-25T01:46:47.165Z,0.00
2017-10-25T01:47:47.063Z,0.00
2017-10-25T01:48:46.975Z,0.00
2017-10-25T01:49:46.905Z,0.00
2017-10-25T01:50:46.817Z,0.00
2017-10-25T01:51:46.752Z,0.00
2017-10-25T01:52:46.649Z,0.00
2017-10-25T01:53:46.571Z,0.00
2017-10-25T01:54:46.488Z,0.00
2017-10-25T01:55:46.410Z,0.00
2017-10-25T01:56:46.326Z,0.00
2017-10-25T01:57:46.256Z,0.00
2017-10-25T01:58:46.176Z,0.00
2017-10-25T01:59:46.090Z,0.00
2017-10-25T02:00:46.009Z,0.00
2017-10-25T02:01:45.923Z,0.00
2017-10-25T02:02:45.841Z,0.00
2017-10-25T02:03:45.765Z,0.00
2017-10-25T02:04:45.689Z,0.00
2017-10-25T02:05:45.630Z,0.00
2017-10-25T02:06:45.519Z,0.00
2017-10-25T02:07:45.440Z,0.00
2017-10-25T02:08:45.364Z,0.00
2017-10-25T02:09:45.278Z,0.00
2017-10-25T02:10:45.209Z,0.00
2017-10-25T02:11:45.123Z,0.00
2017-10-25T02:12:45.041Z,0.00
2017-10-25T02:13:44.955Z,0.00
2017-10-25T02:14:44.872Z,0.00
2017-10-25T02:15:44.797Z,0.00
2017-10-25T02:16:44.716Z,0.00
2017-10-25T02:17:44.637Z,0.00
2017-10-25T02:18:44.551Z,0.00
2017-10-25T02:19:44.466Z,0.00
2017-10-25T02:20:44.392Z,0.00
2017-10-25T02:21:44.314Z,0.00
2017-10-25T02:22:44.231Z,0.00
2017-10-25T02:23:44.149Z,0.00
2017-10-25T02:24:44.070Z,0.00
2017-10-25T02:25:43.985Z,0.00
2017-10-25T02:26:43.914Z,0.00
2017-10-25T02:27:43.844Z,0.00
2017-10-25T02:28:43.744Z,0.00
2017-10-25T02:29:43.664Z,0.00
2017-10-25T02:30:43.579Z,0.00
2017-10-25T02:31:43.500Z,0.00
2017-10-25T02:32:43.424Z,0.00
2017-10-25T02:33:43.345Z,0.00
2017-10-25T02:34:43.255Z,0.00
2017-10-25T02:35:43.176Z,0.00
2017-10-25T02:36:43.100Z,0.00
2017-10-25T02:37:43.019Z,0.00
2017-10-25T02:38:42.947Z,0.00
2017-10-25T02:39:42.862Z,0.00
2017-10-25T02:40:42.791Z,0.00
2017-10-25T02:41:42.701Z,0.00
2017-10-25T02:42:42.625Z,0.00
2017-10-25T02:43:42.539Z,0.00
2017-10-25T02:44:42.449Z,0.00
2017-10-25T02:45:42.378Z,0.00
2017-10-25T02:46:42.287Z,0.00
2017-10-25T02:47:42.225Z,0.00
2017-10-25T02:48:42.122Z,0.00
2017-10-25T02:49:42.047Z,0.00
2017-10-25T02:50:41.964Z,0.00
2017-10-25T02:51:41.879Z,0.00
2017-10-25T02:52:41.800Z,0.00
2017-10-25T02:53:41.725Z,0.00
2017-10-25T02:54:41.681Z,0.00
2017-10-25T02:55:41.569Z,0.00
2017-10-25T02:56:41.479Z,0.00
2017-10-25T02:57:41.395Z,0.00
2017-10-25T02:58:41.318Z,0.00
2017-10-25T02:59:41.260Z,0.00
2017-10-25T03:00:41.156Z,0.00
2017-10-25T03:01:41.070Z,0.00
2017-10-25T03:02:41.005Z,0.00
2017-10-25T03:03:40.919Z,0.00
2017-10-25T03:04:40.835Z,0.00
2017-10-25T03:05:40.749Z,0.00
2017-10-25T03:06:40.675Z,0.00
2017-10-25T03:07:40.604Z,0.00
2017-10-25T03:08:40.525Z,0.00
2017-10-25T03:09:40.431Z,0.00
2017-10-25T03:10:40.349Z,0.00
2017-10-25T03:11:40.263Z,0.00
2017-10-25T03:12:40.183Z,0.00
2017-10-25T03:13:40.103Z,0.00
2017-10-25T03:14:40.031Z,0.00
2017-10-25T03:15:39.944Z,0.00
2017-10-25T03:16:39.863Z,0.00
2017-10-25T03:17:39.780Z,0.00
2017-10-25T03:18:39.697Z,0.00
2017-10-25T03:19:39.627Z,0.00
2017-10-25T03:20:39.533Z,0.00
2017-10-25T03:21:39.459Z,0.00
2017-10-25T03:22:39.380Z,0.00
2017-10-25T03:23:39.306Z,0.00
2017-10-25T03:24:39.218Z,0.00
2017-10-25T03:25:39.133Z,0.00
2017-10-25T03:26:39.052Z,0.00
2017-10-25T03:27:38.971Z,0.00
2017-10-25T03:28:38.894Z,0.00
2017-10-25T03:29:38.820Z,0.00
2017-10-25T03:30:38.734Z,0.00
2017-10-25T03:31:38.646Z,0.00
2017-10-25T03:32:38.564Z,0.00
2017-10-25T03:33:38.483Z,0.00
2017-10-25T03:34:38.404Z,0.00
2017-10-25T03:35:38.324Z,0.00
2017-10-25T03:36:38.246Z,0.00
2017-10-25T03:37:38.162Z,0.00
2017-10-25T03:38:38.082Z,0.00
2017-10-25T03:39:37.998Z,0.00
2017-10-25T03:40:37.917Z,0.00
2017-10-25T03:41:37.842Z,0.00
2017-10-25T03:42:37.760Z,0.00
2017-10-25T03:43:37.680Z,0.00
2017-10-25T03:44:37.598Z,0.00
2017-10-25T03:45:37.514Z,0.00
2017-10-25T03:46:37.446Z,0.00
2017-10-25T03:47:37.353Z,0.00
2017-10-25T03:48:37.272Z,0.00
2017-10-25T03:49:37.198Z,0.00
2017-10-25T03:50:37.116Z,0.00
2017-10-25T03:51:37.033Z,0.00
2017-10-25T03:52:36.952Z,0.00
2017-10-25T03:53:36.870Z,0.00
2017-10-25T03:54:36.786Z,0.00
2017-10-25T03:55:36.707Z,0.00
2017-10-25T03:56:36.626Z,0.00
2017-10-25T03:57:36.547Z,0.00
2017-10-25T03:58:36.461Z,0.00
2017-10-25T03:59:36.383Z,0.00
2017-10-25T04:00:36.307Z,0.00
2017-10-25T04:01:36.223Z,0.00
2017-10-25T04:02:36.136Z,0.00
2017-10-25T04:03:36.063Z,0.00
2017-10-25T04:04:35.977Z,0.00
2017-10-25T04:05:35.904Z,0.00
2017-10-25T04:06:35.820Z,0.00
2017-10-25T04:07:35.739Z,0.00
2017-10-25T04:08:35.664Z,0.00
2017-10-25T04:09:35.586Z,0.00
2017-10-25T04:10:35.506Z,0.00
2017-10-25T04:11:35.424Z,0.00
2017-10-25T04:12:35.331Z,0.00
2017-10-25T04:13:35.246Z,0.00
2017-10-25T04:14:35.166Z,0.00
2017-10-25T04:15:35.090Z,0.00
2017-10-25T04:16:35.008Z,0.00
2017-10-25T04:17:34.941Z,0.00
2017-10-25T04:18:34.861Z,0.00
2017-10-25T04:19:34.768Z,0.00
2017-10-25T04:20:34.681Z,0.00
2017-10-25T04:21:34.607Z,0.00
2017-10-25T04:22:34.534Z,0.00
2017-10-25T04:23:34.439Z,0.00
2017-10-25T04:24:34.364Z,0.00
2017-10-25T04:25:34.277Z,0.00
2017-10-25T04:26:34.199Z,0.00
2017-10-25T04:27:34.115Z,0.00
2017-10-25T04:28:34.031Z,0.00
2017-10-25T04:29:33.955Z,0.00
2017-10-25T04:30:33.905Z,0.00
2017-10-25T04:31:33.792Z,0.00
2017-10-25T04:32:33.704Z,0.00
2017-10-25T04:33:33.625Z,0.00
2017-10-25T04:34:33.548Z,0.00
2017-10-25T04:35:33.466Z,0.00
2017-10-25T04:36:33.381Z,0.00
2017-10-25T04:37:33.302Z,0.00
2017-10-25T04:38:33.227Z,0.00
2017-10-25T04:39:33.148Z,0.00
2017-10-25T04:40:33.070Z,0.00
2017-10-25T04:41:32.979Z,0.00
2017-10-25T04:42:32.895Z,0.00
2017-10-25T04:43:32.812Z,0.00
2017-10-25T04:44:32.735Z,0.00
2017-10-25T04:45:32.654Z,0.00
2017-10-25T04:46:32.573Z,0.00
2017-10-25T04:47:32.498Z,0.00
2017-10-25T04:48:32.421Z,0.00
2017-10-25T04:49:32.342Z,0.00
2017-10-25T04:50:32.248Z,0.00
2017-10-25T04:51:32.167Z,0.00
2017-10-25T04:52:32.089Z,0.00
2017-10-25T04:53:32.027Z,0.00
2017-10-25T04:54:31.921Z,0.00
2017-10-25T04:55:31.844Z,0.00
2017-10-25T04:56:31.759Z,0.00
2017-10-25T04:57:31.681Z,0.00
2017-10-25T04:58:31.600Z,0.00
2017-10-25T04:59:31.520Z,0.00
2017-10-25T05:00:31.469Z,0.00
2017-10-25T05:01:31.354Z,0.00
2017-10-25T05:02:31.271Z,0.00
2017-10-25T05:03:31.193Z,0.00
2017-10-25T05:04:31.119Z,0.00
2017-10-25T05:05:31.037Z,0.00
2017-10-25T05:06:30.946Z,0.00
2017-10-25T05:07:30.896Z,0.00
2017-10-25T05:08:30.789Z,0.00
2017-10-25T05:09:30.712Z,0.00
2017-10-25T05:10:30.627Z,0.00
2017-10-25T05:11:30.548Z,0.00
2017-10-25T05:12:30.484Z,0.00
2017-10-25T05:13:30.385Z,0.00
2017-10-25T05:14:30.309Z,0.00
2017-10-25T05:15:30.220Z,0.00
2017-10-25T05:16:30.145Z,0.00
2017-10-25T05:17:30.071Z,0.00
2017-10-25T05:18:29.981Z,0.00
2017-10-25T05:19:29.900Z,0.00
2017-10-25T05:20:29.812Z,0.00
2017-10-25T05:21:29.740Z,0.00
2017-10-25T05:22:29.659Z,0.00
2017-10-25T05:23:29.580Z,0.00
2017-10-25T05:24:29.488Z,0.00
2017-10-25T05:25:29.411Z,0.00
2017-10-25T05:26:29.335Z,0.00
2017-10-25T05:27:29.255Z,0.00
2017-10-25T05:28:29.189Z,0.00
2017-10-25T05:29:29.092Z,0.00
2017-10-25T05:30:29.007Z,0.00
2017-10-25T05:31:28.922Z,0.00
2017-10-25T05:32:28.843Z,0.00
2017-10-25T05:33:28.764Z,0.00
2017-10-25T05:34:28.689Z,0.00
2017-10-25T05:35:28.611Z,0.00
2017-10-25T05:36:28.538Z,0.00
2017-10-25T05:37:28.441Z,0.00
2017-10-25T05:38:28.363Z,0.00
2017-10-25T05:39:28.282Z,0.00
2017-10-25T05:40:28.196Z,0.00
2017-10-25T05:41:28.115Z,0.00
2017-10-25T05:42:28.042Z,0.00
2017-10-25T05:43:27.954Z,0.00
2017-10-25T05:44:27.874Z,0.00
2017-10-25T05:45:27.790Z,0.00
2017-10-25T05:46:27.726Z,0.00
2017-10-25T05:47:27.636Z,0.00
2017-10-25T05:48:27.549Z,0.00
2017-10-25T05:49:27.469Z,0.00
2017-10-25T05:50:27.422Z,0.00
2017-10-25T05:51:27.307Z,0.00
2017-10-25T05:52:27.229Z,0.00
2017-10-25T05:53:27.153Z,0.00
2017-10-25T05:54:27.073Z,0.00
2017-10-25T05:55:26.999Z,0.00
2017-10-25T05:56:26.898Z,0.00
2017-10-25T05:57:26.833Z,0.00
2017-10-25T05:58:26.744Z,0.00
2017-10-25T05:59:26.673Z,0.00
2017-10-25T06:00:26.581Z,0.00
2017-10-25T06:01:26.494Z,0.00
2017-10-25T06:02:26.411Z,0.00
2017-10-25T06:03:26.335Z,0.00
2017-10-25T06:04:26.253Z,0.00
2017-10-25T06:05:26.179Z,0.00
2017-10-25T06:06:26.088Z,0.00
2017-10-25T06:07:26.019Z,5.63
2017-10-25T06:08:25.922Z,5.63
2017-10-25T06:09:25.840Z,5.63
2017-10-25T06:10:25.764Z,5.63
2017-10-25T06:11:25.693Z,5.63
2017-10-25T06:12:25.599Z,5.63
2017-10-25T06:13:25.532Z,5.63
2017-10-25T06:14:25.453Z,5.63
2017-10-25T06:15:25.360Z,5.63
2017-10-25T06:16:25.282Z,5.63
2017-10-25T06:17:25.198Z,5.63
2017-10-25T06:18:25.122Z,5.63
2017-10-25T06:19:25.029Z,5.63
2017-10-25T06:20:24.950Z,5.63
2017-10-25T06:21:24.875Z,5.63
2017-10-25T06:22:24.805Z,11.25
2017-10-25T06:23:24.714Z,11.25
2017-10-25T06:24:24.633Z,11.25
2017-10-25T06:25:24.552Z,11.25
2017-10-25T06:26:24.483Z,11.25
2017-10-25T06:27:24.386Z,16.88
2017-10-25T06:28:24.305Z,16.88
2017-10-25T06:29:24.234Z,16.88
2017-10-25T06:30:24.144Z,22.50
2017-10-25T06:31:24.069Z,22.50
2017-10-25T06:32:23.991Z,22.50
2017-10-25T06:33:23.895Z,28.13
2017-10-25T06:34:23.817Z,28.13
2017-10-25T06:35:23.741Z,33.75
2017-10-25T06:36:23.656Z,39.38
2017-10-25T06:37:23.572Z,39.38
2017-10-25T06:38:23.498Z,45.00
2017-10-25T06:39:23.409Z,50.63
2017-10-25T06:40:23.322Z,56.25
2017-10-25T06:41:23.249Z,56.25
2017-10-25T06:42:23.165Z,61.88
2017-10-25T06:43:23.089Z,67.50
2017-10-25T06:44:23.000Z,73.13
2017-10-25T06:45:22.920Z,78.75
2017-10-25T06:46:22.844Z,84.38
2017-10-25T06:47:22.762Z,84.38
2017-10-25T06:48:22.676Z,90.00
2017-10-25T06:49:22.613Z,95.63
2017-10-25T06:50:22.512Z,101.25
2017-10-25T06:51:22.479Z,101.25
2017-10-25T06:52:22.356Z,106.88
2017-10-25T06:53:22.276Z,112.50
2017-10-25T06:54:22.189Z,118.13
2017-10-25T06:55:22.123Z,129.38
2017-10-25T06:56:22.026Z,135.00
2017-10-25T06:57:21.947Z,140.63
2017-10-25T06:58:21.886Z,146.25
2017-10-25T06:59:21.779Z,151.88
2017-10-25T07:00:21.701Z,157.50
2017-10-25T07:01:21.622Z,163.13
2017-10-25T07:02:21.542Z,168.75
2017-10-25T07:03:21.474Z,168.75
2017-10-25T07:04:21.384Z,174.38
2017-10-25T07:05:21.299Z,180.00
2017-10-25T07:06:21.231Z,180.00
2017-10-25T07:07:21.141Z,185.63
2017-10-25T07:08:21.047Z,185.63
2017-10-25T07:09:20.966Z,185.63
2017-10-25T07:10:20.898Z,185.63
2017-10-25T07:11:20.812Z,191.25
2017-10-25T07:12:20.724Z,191.25
2017-10-25T07:13:20.637Z,196.88
2017-10-25T07:14:20.559Z,191.25
2017-10-25T07:15:20.477Z,196.88
2017-10-25T07:16:20.394Z,208.13
2017-10-25T07:17:20.317Z,202.50
2017-10-25T07:18:20.232Z,191.25
2017-10-25T07:19:20.158Z,185.63
2017-10-25T07:20:20.073Z,185.63
2017-10-25T07:21:19.994Z,185.63
2017-10-25T07:22:19.907Z,196.88
2017-10-25T07:23:19.831Z,202.50
2017-10-25T07:24:19.757Z,185.63
2017-10-25T07:25:19.672Z,180.00
2017-10-25T07:26:19.590Z,185.63
2017-10-25T07:27:19.511Z,185.63
2017-10-25T07:28:19.418Z,191.25
2017-10-25T07:29:19.336Z,191.25
2017-10-25T07:30:19.254Z,191.25
2017-10-25T07:31:19.174Z,208.13
2017-10-25T07:32:19.087Z,213.75
2017-10-25T07:33:19.005Z,230.63
2017-10-25T07:34:18.939Z,236.25
2017-10-25T07:35:18.853Z,241.88
2017-10-25T07:36:18.759Z,253.13
2017-10-25T07:37:18.684Z,264.38
2017-10-25T07:38:18.602Z,275.63
2017-10-25T07:39:18.531Z,270.00
2017-10-25T07:40:18.437Z,303.75
2017-10-25T07:41:18.413Z,309.38
2017-10-25T07:42:18.276Z,320.63
2017-10-25T07:43:18.191Z,315.00
2017-10-25T07:44:18.125Z,348.75
2017-10-25T07:45:18.036Z,388.13
2017-10-25T07:46:17.949Z,320.63
2017-10-25T07:47:17.865Z,286.88
2017-10-25T07:48:17.779Z,270.00
2017-10-25T07:49:17.696Z,253.13
2017-10-25T07:50:17.616Z,241.88
2017-10-25T07:51:17.535Z,230.63
2017-10-25T07:52:17.464Z,236.25
2017-10-25T07:53:17.372Z,219.38
2017-10-25T07:54:17.292Z,225.00
2017-10-25T07:55:17.215Z,208.13
2017-10-25T07:56:17.124Z,191.25
2017-10-25T07:57:17.044Z,174.38
2017-10-25T07:58:16.965Z,163.13
2017-10-25T07:59:16.889Z,157.50
2017-10-25T08:00:16.797Z,157.50
2017-10-25T08:01:16.714Z,157.50
2017-10-25T08:02:16.657Z,163.13
2017-10-25T08:03:16.555Z,180.00
2017-10-25T08:04:16.468Z,191.25
2017-10-25T08:05:16.396Z,208.13
2017-10-25T08:06:16.312Z,219.38
2017-10-25T08:07:16.236Z,241.88
2017-10-25T08:08:16.170Z,253.13
2017-10-25T08:09:16.062Z,264.38
2017-10-25T08:10:15.984Z,270.00
2017-10-25T08:11:15.909Z,286.88
2017-10-25T08:12:15.826Z,303.75
2017-10-25T08:13:15.739Z,326.25
2017-10-25T08:14:15.658Z,331.88
2017-10-25T08:15:15.580Z,348.75
2017-10-25T08:16:15.490Z,365.63
2017-10-25T08:17:15.420Z,376.88
2017-10-25T08:18:15.330Z,410.63
2017-10-25T08:19:15.264Z,461.25
2017-10-25T08:20:15.168Z,466.88
2017-10-25T08:21:15.092Z,478.13
2017-10-25T08:22:15.003Z,551.25
2017-10-25T08:23:14.923Z,675.00
2017-10-25T08:24:14.842Z,798.75
2017-10-25T08:25:14.760Z,900.00
2017-10-25T08:26:14.694Z,978.75
2017-10-25T08:27:14.603Z,1181.25
2017-10-25T08:28:14.519Z,1293.75
2017-10-25T08:29:14.433Z,1226.25
2017-10-25T08:30:14.359Z,1366.88
2017-10-25T08:31:14.276Z,1383.75
2017-10-25T08:32:14.198Z,1350.00
2017-10-25T08:33:14.112Z,1316.25
2017-10-25T08:34:14.041Z,1181.25
2017-10-25T08:35:13.957Z,1130.63
2017-10-25T08:36:13.876Z,1288.13
2017-10-25T08:37:13.817Z,1293.75
2017-10-25T08:38:13.712Z,1209.38
2017-10-25T08:39:13.642Z,1282.50
2017-10-25T08:40:13.569Z,1175.63
2017-10-25T08:41:13.472Z,1220.63
2017-10-25T08:42:13.401Z,1119.38
2017-10-25T08:43:13.315Z,1203.75
2017-10-25T08:44:13.250Z,1395.00
2017-10-25T08:45:13.159Z,2025.00
2017-10-25T08:46:13.081Z,2503.13
2017-10-25T08:47:13.043Z,3538.13
2017-10-25T08:48:12.925Z,4038.75
2017-10-25T08:49:12.838Z,4353.75
2017-10-25T08:50:12.775Z,4050.00
2017-10-25T08:51:12.703Z,4246.88
2017-10-25T08:52:12.602Z,3616.88
2017-10-25T08:53:12.529Z,1985.63
2017-10-25T08:54:12.481Z,1535.63
2017-10-25T08:55:12.372Z,2891.25
2017-10-25T08:56:13.033Z,3993.75
2017-10-25T08:57:12.226Z,3774.38
2017-10-25T08:58:12.144Z,3639.38
2017-10-25T08:59:12.075Z,3526.88
2017-10-25T09:00:11.986Z,3757.50
2017-10-25T09:01:11.919Z,4511.25
2017-10-25T09:02:11.839Z,4370.63
2017-10-25T09:03:11.800Z,3088.13
2017-10-25T09:04:11.687Z,3273.75
2017-10-25T09:05:11.613Z,1749.38
2017-10-25T09:06:11.544Z,3099.38
2017-10-25T09:07:11.467Z,3116.25
2017-10-25T09:08:11.395Z,2238.75
2017-10-25T09:09:11.310Z,2491.88
2017-10-25T09:10:11.246Z,4201.88
2017-10-25T09:11:11.169Z,1665.00
2017-10-25T09:12:11.088Z,1203.75
2017-10-25T09:13:11.016Z,731.25
2017-10-25T09:14:10.937Z,675.00
2017-10-25T09:15:10.888Z,697.50
2017-10-25T09:16:10.788Z,860.63
2017-10-25T09:17:10.719Z,1108.13
2017-10-25T09:18:10.623Z,1125.00
2017-10-25T09:19:10.546Z,1321.88
2017-10-25T09:20:10.473Z,916.88
2017-10-25T09:21:10.390Z,950.63
2017-10-25T09:22:10.324Z,911.25
2017-10-25T09:23:10.252Z,1023.75
2017-10-25T09:24:10.154Z,1198.13
2017-10-25T09:25:10.080Z,1260.00
2017-10-25T09:26:10.004Z,1231.88
2017-10-25T09:27:09.928Z,1288.13
2017-10-25T09:28:09.857Z,1395.00
2017-10-25T09:29:09.778Z,1681.88
2017-10-25T09:30:09.697Z,2981.25
2017-10-25T09:31:09.608Z,3268.13
2017-10-25T09:32:09.530Z,1586.25
2017-10-25T09:33:09.492Z,1125.00
2017-10-25T09:34:09.380Z,1929.38
2017-10-25T09:35:09.305Z,1198.13
2017-10-25T09:36:09.287Z,1293.75
2017-10-25T09:37:09.180Z,2255.63
2017-10-25T09:38:09.096Z,2058.75
2017-10-25T09:39:09.011Z,2773.13
2017-10-25T09:40:08.921Z,3037.50
2017-10-25T09:41:08.840Z,1828.13
2017-10-25T09:42:08.778Z,731.25
2017-10-25T09:43:08.701Z,725.63
2017-10-25T09:44:08.614Z,1006.88
2017-10-25T09:45:08.535Z,1310.63
2017-10-25T09:46:08.463Z,1029.38
2017-10-25T09:47:08.382Z,1507.50
2017-10-25T09:48:08.301Z,2193.75
2017-10-25T09:49:08.232Z,2829.38
2017-10-25T09:50:08.161Z,3065.63
2017-10-25T09:51:08.089Z,4314.38
2017-10-25T09:52:07.999Z,4995.00
2017-10-25T09:53:07.921Z,5056.88
2017-10-25T09:54:07.845Z,5321.25
2017-10-25T09:55:07.768Z,5366.25
2017-10-25T09:56:07.699Z,5293.13
2017-10-25T09:57:07.634Z,5214.38
2017-10-25T09:58:07.547Z,5045.63
2017-10-25T09:59:07.481Z,5062.50
2017-10-25T10:00:07.403Z,5259.38
2017-10-25T10:01:07.330Z,5259.38
2017-10-25T10:02:07.258Z,5236.88
2017-10-25T10:03:07.198Z,4927.50
2017-10-25T10:04:07.122Z,5141.25
2017-10-25T10:05:07.046Z,5304.38
2017-10-25T10:06:06.972Z,4786.88
2017-10-25T10:07:06.906Z,5439.38
2017-10-25T10:08:06.837Z,4781.25
2017-10-25T10:09:06.773Z,4370.63
2017-10-25T10:10:06.698Z,5490.00
2017-10-25T10:11:06.629Z,5681.25
2017-10-25T10:12:06.549Z,4539.38
2017-10-25T10:13:06.480Z,4185.00
2017-10-25T10:14:06.414Z,2896.88
2017-10-25T10:15:06.345Z,1980.00
2017-10-25T10:16:06.287Z,2638.13
2017-10-25T10:17:06.210Z,3453.75
2017-10-25T10:18:06.133Z,3639.38
2017-10-25T10:19:06.061Z,4123.13
2017-10-25T10:20:05.998Z,4168.13
2017-10-25T10:21:05.916Z,4044.38
2017-10-25T10:22:05.845Z,4978.13
2017-10-25T10:23:05.787Z,2981.25
2017-10-25T10:24:05.708Z,4612.50
2017-10-25T10:25:05.636Z,2610.00
2017-10-25T10:26:05.575Z,5107.50
2017-10-25T10:27:05.500Z,4173.75
2017-10-25T10:28:05.440Z,5130.00
2017-10-25T10:29:05.371Z,4916.25
2017-10-25T10:30:05.291Z,5090.63
2017-10-25T10:31:05.228Z,5034.38
2017-10-25T10:32:05.158Z,4905.00
2017-10-25T10:33:05.085Z,4944.38
2017-10-25T10:34:05.017Z,4905.00
2017-10-25T10:35:04.959Z,4860.00
2017-10-25T10:36:04.885Z,4860.00
2017-10-25T10:37:04.819Z,4865.63
2017-10-25T10:38:04.772Z,4696.88
2017-10-25T10:39:04.685Z,4831.88
2017-10-25T10:40:04.628Z,4820.63
2017-10-25T10:41:04.539Z,4826.25
2017-10-25T10:42:04.477Z,3600.00
2017-10-25T10:43:04.406Z,1451.25
2017-10-25T10:44:04.339Z,3909.38
2017-10-25T10:45:04.296Z,4685.63
2017-10-25T10:46:04.212Z,4685.63
2017-10-25T10:47:04.131Z,4719.38
2017-10-25T10:48:04.065Z,4696.88
2017-10-25T10:49:03.999Z,4680.00
2017-10-25T10:50:03.931Z,4685.63
2017-10-25T10:51:03.865Z,4663.13
2017-10-25T10:52:03.793Z,4584.38
2017-10-25T10:53:03.723Z,4567.50
2017-10-25T10:54:03.657Z,4550.63
2017-10-25T10:55:03.592Z,4556.25
2017-10-25T10:56:03.518Z,4539.38
2017-10-25T10:57:03.449Z,4348.13
2017-10-25T10:58:03.387Z,4055.63
2017-10-25T10:59:03.310Z,3656.25
2017-10-25T11:00:03.239Z,3172.50
2017-10-25T11:01:03.194Z,3031.88
2017-10-25T11:02:03.110Z,3751.88
2017-10-25T11:03:03.044Z,4359.38
2017-10-25T11:04:02.977Z,4213.13
2017-10-25T11:05:02.933Z,4286.25
2017-10-25T11:06:02.840Z,4252.50
2017-10-25T11:07:02.785Z,4275.00
2017-10-25T11:08:02.714Z,4258.13
2017-10-25T11:09:02.638Z,4252.50
2017-10-25T11:10:02.575Z,4123.13
2017-10-25T11:11:02.509Z,4151.25
2017-10-25T11:12:02.489Z,4055.63
2017-10-25T11:13:02.378Z,4021.88
2017-10-25T11:14:02.310Z,3982.50
2017-10-25T11:15:02.260Z,3976.88
2017-10-25T11:16:02.186Z,3915.00
2017-10-25T11:17:02.134Z,3976.88
2017-10-25T11:18:02.050Z,3965.63
2017-10-25T11:19:01.990Z,3960.00
2017-10-25T11:20:01.927Z,3965.63
2017-10-25T11:21:01.845Z,3937.50
2017-10-25T11:22:01.780Z,3948.75
2017-10-25T11:23:01.712Z,3875.63
2017-10-25T11:24:01.650Z,3819.38
2017-10-25T11:25:01.579Z,3847.50
2017-10-25T11:26:01.529Z,3853.13
2017-10-25T11:27:01.452Z,3858.75
2017-10-25T11:28:01.391Z,3853.13
2017-10-25T11:29:01.294Z,3836.25
2017-10-25T11:30:01.241Z,3796.88
2017-10-25T11:31:01.163Z,3802.50
2017-10-25T11:32:01.110Z,3735.00
2017-10-25T11:33:01.041Z,3678.75
2017-10-25T11:34:00.969Z,3650.63
2017-10-25T11:35:00.892Z,3560.63
2017-10-25T11:36:00.814Z,3577.50
2017-10-25T11:37:00.741Z,3538.13
2017-10-25T11:38:00.678Z,3470.63
2017-10-25T11:39:00.595Z,2120.63
2017-10-25T11:40:00.556Z,736.88
2017-10-25T11:41:00.462Z,680.63
2017-10-25T11:42:00.402Z,675.00
2017-10-25T11:43:00.310Z,675.00
2017-10-25T11:44:00.228Z,680.63
2017-10-25T11:45:00.150Z,703.13
2017-10-25T11:46:00.074Z,686.25
2017-10-25T11:46:59.994Z,742.50
2017-10-25T11:47:59.930Z,804.38
2017-10-25T11:48:59.847Z,781.88
2017-10-25T11:49:59.777Z,680.63
2017-10-25T11:50:59.703Z,781.88
2017-10-25T11:51:59.626Z,871.88
2017-10-25T11:52:59.585Z,810.00
2017-10-25T11:53:59.478Z,821.25
2017-10-25T11:54:59.408Z,832.50
2017-10-25T11:55:59.329Z,849.38
2017-10-25T11:56:59.262Z,855.00
2017-10-25T11:57:59.176Z,798.75
2017-10-25T11:58:59.097Z,821.25
2017-10-25T11:59:59.026Z,725.63
2017-10-25T12:00:58.959Z,691.88
2017-10-25T12:01:58.883Z,680.63
2017-10-25T12:02:58.800Z,697.50
2017-10-25T12:03:58.718Z,585.00
2017-10-25T12:04:58.654Z,551.25
2017-10-25T12:05:58.577Z,562.50
2017-10-25T12:06:58.503Z,618.75
2017-10-25T12:07:58.437Z,686.25
2017-10-25T12:08:58.388Z,675.00
2017-10-25T12:09:58.303Z,663.75
2017-10-25T12:10:58.200Z,669.38
2017-10-25T12:11:58.112Z,646.88
2017-10-25T12:12:58.040Z,641.25
2017-10-25T12:13:57.961Z,635.63
2017-10-25T12:14:57.921Z,551.25
2017-10-25T12:15:57.819Z,646.88
2017-10-25T12:16:57.751Z,652.50
2017-10-25T12:17:57.661Z,641.25
2017-10-25T12:18:57.582Z,618.75
2017-10-25T12:19:57.506Z,613.13
2017-10-25T12:20:57.431Z,590.63
2017-10-25T12:21:57.352Z,573.75
2017-10-25T12:22:57.286Z,556.88
2017-10-25T12:23:57.202Z,540.00
2017-10-25T12:24:57.128Z,534.38
2017-10-25T12:25:57.043Z,517.50
2017-10-25T12:26:56.974Z,410.63
2017-10-25T12:27:56.898Z,393.75
2017-10-25T12:28:56.821Z,382.50
2017-10-25T12:29:56.749Z,382.50
2017-10-25T12:30:56.673Z,382.50
2017-10-25T12:31:56.596Z,376.88
2017-10-25T12:32:56.521Z,365.63
2017-10-25T12:33:56.443Z,360.00
2017-10-25T12:34:56.372Z,382.50
2017-10-25T12:35:56.320Z,376.88
2017-10-25T12:36:56.226Z,393.75
2017-10-25T12:37:56.144Z,450.00
2017-10-25T12:38:56.068Z,540.00
2017-10-25T12:39:56.003Z,545.63
2017-10-25T12:40:55.924Z,540.00
2017-10-25T12:41:55.852Z,551.25
2017-10-25T12:42:55.769Z,551.25
2017-10-25T12:43:55.684Z,511.88
2017-10-25T12:44:55.617Z,466.88
2017-10-25T12:45:55.533Z,500.63
2017-10-25T12:46:55.456Z,495.00